sensor_id;sensor_type;location;lat;lon;timestamp;pressure;altitude;pressure_sealevel;temperature;humidity
71195;BME280;58908;51.426;7.714;2023-03-04T00:00:25;100658.38;;;1.32;100.00
71195;BME280;58908;51.426;7.714;2023-03-04T00:02:51;100665.31;;;1.34;100.00
71195;BME280;58908;51.426;7.714;2023-03-04T00:05:17;100665.28;;;1.39;100.00
71195;BME280;58908;51.426;7.714;2023-03-04T00:07:44;100667.88;;;1.37;100.00
71195;BME280;58908;51.426;7.714;2023-03-04T00:10:10;100661.00;;;1.35;100.00
71195;BME280;58908;51.426;7.714;2023-03-04T00:12:37;100658.41;;;1.35;100.00
71195;BME280;58908;51.426;7.714;2023-03-04T00:15:06;100657.53;;;1.34;100.00
71195;BME280;58908;51.426;7.714;2023-03-04T00:17:32;100651.44;;;1.35;100.00
71195;BME280;58908;51.426;7.714;2023-03-04T00:19:59;100649.69;;;1.37;100.00
71195;BME280;58908;51.426;7.714;2023-03-04T00:22:25;100654.00;;;1.38;100.00
71195;BME280;58908;51.426;7.714;2023-03-04T00:24:51;100643.66;;;1.37;100.00
71195;BME280;58908;51.426;7.714;2023-03-04T00:27:17;100642.72;;;1.45;100.00
71195;BME280;58908;51.426;7.714;2023-03-04T00:29:44;100647.91;;;1.45;100.00
71195;BME280;58908;51.426;7.714;2023-03-04T00:32:11;100646.16;;;1.49;100.00
71195;BME280;58908;51.426;7.714;2023-03-04T00:34:37;100647.91;;;1.51;100.00
71195;BME280;58908;51.426;7.714;2023-03-04T00:37:04;100647.75;;;1.69;100.00
71195;BME280;58908;51.426;7.714;2023-03-04T00:39:30;100644.28;;;1.69;100.00
71195;BME280;58908;51.426;7.714;2023-03-04T00:41:57;100645.19;;;1.68;100.00
71195;BME280;58908;51.426;7.714;2023-03-04T00:44:23;100637.38;;;1.65;100.00
71195;BME280;58908;51.426;7.714;2023-03-04T00:46:49;100637.38;;;1.65;100.00
71195;BME280;58908;51.426;7.714;2023-03-04T00:49:17;100637.38;;;1.66;100.00
71195;BME280;58908;51.426;7.714;2023-03-04T00:51:43;100637.41;;;1.63;100.00
71195;BME280;58908;51.426;7.714;2023-03-04T00:54:09;100634.81;;;1.63;100.00
71195;BME280;58908;51.426;7.714;2023-03-04T00:56:35;100640.84;;;1.65;100.00
71195;BME280;58908;51.426;7.714;2023-03-04T00:59:02;100637.38;;;1.66;100.00
71195;BME280;58908;51.426;7.714;2023-03-04T01:01:28;100636.50;;;1.67;100.00
71195;BME280;58908;51.426;7.714;2023-03-04T01:03:54;100626.94;;;1.71;100.00
71195;BME280;58908;51.426;7.714;2023-03-04T01:06:22;100630.34;;;1.76;100.00
71195;BME280;58908;51.426;7.714;2023-03-04T01:08:48;100627.72;;;1.82;100.00
71195;BME280;58908;51.426;7.714;2023-03-04T01:11:14;100632.88;;;1.86;100.00
71195;BME280;58908;51.426;7.714;2023-03-04T01:13:41;100629.41;;;1.87;100.00
71195;BME280;58908;51.426;7.714;2023-03-04T01:16:07;100631.13;;;1.90;100.00
71195;BME280;58908;51.426;7.714;2023-03-04T01:18:34;100630.22;;;1.92;100.00
71195;BME280;58908;51.426;7.714;2023-03-04T01:21:01;100625.84;;;1.96;100.00
71195;BME280;58908;51.426;7.714;2023-03-04T01:23:29;100634.50;;;1.99;100.00
71195;BME280;58908;51.426;7.714;2023-03-04T01:25:55;100628.44;;;1.97;100.00
71195;BME280;58908;51.426;7.714;2023-03-04T01:28:21;100617.19;;;1.95;100.00
71195;BME280;58908;51.426;7.714;2023-03-04T01:30:48;100620.66;;;1.96;100.00
71195;BME280;58908;51.426;7.714;2023-03-04T01:33:14;100611.09;;;1.99;100.00
71195;BME280;58908;51.426;7.714;2023-03-04T01:35:40;100607.56;;;2.05;100.00
71195;BME280;58908;51.426;7.714;2023-03-04T01:38:07;100604.09;;;2.04;100.00
71195;BME280;58908;51.426;7.714;2023-03-04T01:40:34;100608.44;;;2.02;100.00
71195;BME280;58908;51.426;7.714;2023-03-04T01:43:02;100606.72;;;2.00;100.00
71195;BME280;58908;51.426;7.714;2023-03-04T01:45:28;100598.91;;;2.00;100.00
71195;BME280;58908;51.426;7.714;2023-03-04T01:47:56;100602.41;;;2.00;100.00
71195;BME280;58908;51.426;7.714;2023-03-04T01:50:24;100603.19;;;2.05;100.00
71195;BME280;58908;51.426;7.714;2023-03-04T01:52:52;100600.53;;;2.14;100.00
71195;BME280;58908;51.426;7.714;2023-03-04T01:55:19;100591.88;;;2.11;100.00
71195;BME280;58908;51.426;7.714;2023-03-04T01:57:48;100594.50;;;2.08;100.00
71195;BME280;58908;51.426;7.714;2023-03-04T02:00:25;100591.06;;;2.07;100.00
71195;BME280;58908;51.426;7.714;2023-03-04T02:02:53;100593.66;;;2.07;100.00
71195;BME280;58908;51.426;7.714;2023-03-04T02:05:20;100585.75;;;2.18;100.00
71195;BME280;58908;51.426;7.714;2023-03-04T02:07:46;100589.97;;;2.29;100.00
71195;BME280;58908;51.426;7.714;2023-03-04T02:10:13;100592.44;;;2.38;100.00
71195;BME280;58908;51.426;7.714;2023-03-04T02:12:39;100590.53;;;2.53;100.00
71195;BME280;58908;51.426;7.714;2023-03-04T02:15:07;100589.66;;;2.54;100.00
71195;BME280;58908;51.426;7.714;2023-03-04T02:17:34;100585.28;;;2.58;100.00
71195;BME280;58908;51.426;7.714;2023-03-04T02:20:02;100579.19;;;2.60;100.00
71195;BME280;58908;51.426;7.714;2023-03-04T02:22:30;100579.19;;;2.59;100.00
71195;BME280;58908;51.426;7.714;2023-03-04T02:24:58;100581.00;;;2.54;100.00
71195;BME280;58908;51.426;7.714;2023-03-04T02:27:27;100582.66;;;2.59;100.00
71195;BME280;58908;51.426;7.714;2023-03-04T02:29:53;100584.38;;;2.59;100.00
71195;BME280;58908;51.426;7.714;2023-03-04T02:32:19;100581.78;;;2.59;100.00
71195;BME280;58908;51.426;7.714;2023-03-04T02:34:46;100573.19;;;2.54;100.00
71195;BME280;58908;51.426;7.714;2023-03-04T02:37:13;100567.94;;;2.57;100.00
71195;BME280;58908;51.426;7.714;2023-03-04T02:39:40;100578.41;;;2.54;100.00
71195;BME280;58908;51.426;7.714;2023-03-04T02:42:07;100572.31;;;2.53;100.00
71195;BME280;58908;51.426;7.714;2023-03-04T02:44:35;100569.66;;;2.58;100.00
71195;BME280;58908;51.426;7.714;2023-03-04T02:47:02;100568.81;;;2.57;100.00
71195;BME280;58908;51.426;7.714;2023-03-04T02:49:30;100560.13;;;2.57;100.00
71195;BME280;58908;51.426;7.714;2023-03-04T02:51:58;100560.13;;;2.58;100.00
71195;BME280;58908;51.426;7.714;2023-03-04T02:54:24;100565.25;;;2.63;100.00
71195;BME280;58908;51.426;7.714;2023-03-04T02:56:51;100558.25;;;2.68;100.00
71195;BME280;58908;51.426;7.714;2023-03-04T02:59:17;100559.06;;;2.71;100.00
71195;BME280;58908;51.426;7.714;2023-03-04T03:01:45;100553.84;;;2.71;100.00
71195;BME280;58908;51.426;7.714;2023-03-04T03:04:12;100557.28;;;2.75;100.00
71195;BME280;58908;51.426;7.714;2023-03-04T03:06:38;100556.41;;;2.74;100.00
71195;BME280;58908;51.426;7.714;2023-03-04T03:09:05;100553.84;;;2.71;100.00
71195;BME280;58908;51.426;7.714;2023-03-04T03:11:31;100559.06;;;2.73;100.00
71195;BME280;58908;51.426;7.714;2023-03-04T03:13:58;100555.63;;;2.68;100.00
71195;BME280;58908;51.426;7.714;2023-03-04T03:16:24;100547.88;;;2.65;100.00
71195;BME280;58908;51.426;7.714;2023-03-04T03:18:51;100547.03;;;2.63;100.00
71195;BME280;58908;51.426;7.714;2023-03-04T03:21:18;100545.34;;;2.59;100.00
71195;BME280;58908;51.426;7.714;2023-03-04T03:23:44;100545.34;;;2.59;100.00
71195;BME280;58908;51.426;7.714;2023-03-04T03:26:10;100542.78;;;2.56;100.00
71195;BME280;58908;51.426;7.714;2023-03-04T03:28:36;100541.88;;;2.58;100.00
71195;BME280;58908;51.426;7.714;2023-03-04T03:31:03;100543.50;;;2.65;100.00
71195;BME280;58908;51.426;7.714;2023-03-04T03:33:29;100545.22;;;2.68;100.00
71195;BME280;58908;51.426;7.714;2023-03-04T03:35:57;100540.84;;;2.70;100.00
71195;BME280;58908;51.426;7.714;2023-03-04T03:38:24;100545.22;;;2.69;100.00
71195;BME280;58908;51.426;7.714;2023-03-04T03:40:50;100541.72;;;2.70;100.00
71195;BME280;58908;51.426;7.714;2023-03-04T03:43:16;100537.41;;;2.69;100.00
71195;BME280;58908;51.426;7.714;2023-03-04T03:45:42;100536.50;;;2.70;100.00
71195;BME280;58908;51.426;7.714;2023-03-04T03:48:09;100536.50;;;2.70;100.00
71195;BME280;58908;51.426;7.714;2023-03-04T03:50:35;100537.34;;;2.74;100.00
71195;BME280;58908;51.426;7.714;2023-03-04T03:53:02;100530.31;;;2.80;100.00
71195;BME280;58908;51.426;7.714;2023-03-04T03:55:29;100533.75;;;2.81;100.00
71195;BME280;58908;51.426;7.714;2023-03-04T03:57:55;100525.00;;;2.86;100.00
71195;BME280;58908;51.426;7.714;2023-03-04T04:00:21;100526.72;;;2.87;100.00
71195;BME280;58908;51.426;7.714;2023-03-04T04:02:47;100532.78;;;2.88;100.00
71195;BME280;58908;51.426;7.714;2023-03-04T04:05:14;100528.53;;;2.84;100.00
71195;BME280;58908;51.426;7.714;2023-03-04T04:07:41;100526.78;;;2.83;100.00
71195;BME280;58908;51.426;7.714;2023-03-04T04:10:09;100525.88;;;2.85;100.00
71195;BME280;58908;51.426;7.714;2023-03-04T04:12:35;100524.16;;;2.86;100.00
71195;BME280;58908;51.426;7.714;2023-03-04T04:15:02;100525.00;;;2.86;100.00
71195;BME280;58908;51.426;7.714;2023-03-04T04:17:28;100521.56;;;2.84;100.00
71195;BME280;58908;51.426;7.714;2023-03-04T04:19:54;100520.66;;;2.87;100.00
71195;BME280;58908;51.426;7.714;2023-03-04T04:22:21;100523.28;;;2.85;100.00
71195;BME280;58908;51.426;7.714;2023-03-04T04:24:47;100520.66;;;2.87;100.00
71195;BME280;58908;51.426;7.714;2023-03-04T04:27:15;100518.09;;;2.84;100.00
71195;BME280;58908;51.426;7.714;2023-03-04T04:29:41;100518.13;;;2.81;100.00
71195;BME280;58908;51.426;7.714;2023-03-04T04:32:07;100521.63;;;2.80;100.00
71195;BME280;58908;51.426;7.714;2023-03-04T04:34:34;100528.59;;;2.79;100.00
71195;BME280;58908;51.426;7.714;2023-03-04T04:37:00;100517.28;;;2.79;100.00
71195;BME280;58908;51.426;7.714;2023-03-04T04:39:26;100523.38;;;2.78;100.00
71195;BME280;58908;51.426;7.714;2023-03-04T04:41:52;100521.50;;;2.89;100.00
71195;BME280;58908;51.426;7.714;2023-03-04T04:44:20;100524.03;;;2.95;100.00
71195;BME280;58908;51.426;7.714;2023-03-04T04:46:46;100531.84;;;2.95;100.00
71195;BME280;58908;51.426;7.714;2023-03-04T04:49:12;100528.34;;;2.94;100.00
71195;BME280;58908;51.426;7.714;2023-03-04T04:51:39;100526.66;;;2.92;100.00
71195;BME280;58908;51.426;7.714;2023-03-04T04:54:05;100532.75;;;2.91;100.00
71195;BME280;58908;51.426;7.714;2023-03-04T04:56:31;100531.91;;;2.89;100.00
71195;BME280;58908;51.426;7.714;2023-03-04T04:58:59;100529.28;;;2.90;100.00
71195;BME280;58908;51.426;7.714;2023-03-04T05:01:28;100531.03;;;2.88;100.00
71195;BME280;58908;51.426;7.714;2023-03-04T05:03:54;100529.31;;;2.87;100.00
71195;BME280;58908;51.426;7.714;2023-03-04T05:06:20;100533.63;;;2.90;100.00
71195;BME280;58908;51.426;7.714;2023-03-04T05:08:47;100533.56;;;2.94;100.00
71195;BME280;58908;51.426;7.714;2023-03-04T05:11:14;100530.97;;;2.93;100.00
71195;BME280;58908;51.426;7.714;2023-03-04T05:13:40;100532.72;;;2.92;100.00
71195;BME280;58908;51.426;7.714;2023-03-04T05:16:07;100530.13;;;2.92;100.00
71195;BME280;58908;51.426;7.714;2023-03-04T05:18:35;100530.97;;;2.93;100.00
71195;BME280;58908;51.426;7.714;2023-03-04T05:21:02;100525.75;;;2.93;100.00
71195;BME280;58908;51.426;7.714;2023-03-04T05:23:29;100527.47;;;2.95;100.00
71195;BME280;58908;51.426;7.714;2023-03-04T05:25:55;100518.81;;;2.93;100.00
71195;BME280;58908;51.426;7.714;2023-03-04T05:28:22;100524.03;;;2.95;100.00
71195;BME280;58908;51.426;7.714;2023-03-04T05:30:48;100518.81;;;2.93;100.00
71195;BME280;58908;51.426;7.714;2023-03-04T05:33:15;100519.66;;;2.94;100.00
71195;BME280;58908;51.426;7.714;2023-03-04T05:35:43;100524.03;;;2.92;100.00
71195;BME280;58908;51.426;7.714;2023-03-04T05:38:11;100521.47;;;2.90;100.00
71195;BME280;58908;51.426;7.714;2023-03-04T05:40:38;100522.38;;;2.86;100.00
71195;BME280;58908;51.426;7.714;2023-03-04T05:43:04;100523.28;;;2.85;100.00
71195;BME280;58908;51.426;7.714;2023-03-04T05:45:31;100520.66;;;2.85;100.00
71195;BME280;58908;51.426;7.714;2023-03-04T05:47:57;100519.81;;;2.85;100.00
71195;BME280;58908;51.426;7.714;2023-03-04T05:50:23;100519.84;;;2.83;100.00
71195;BME280;58908;51.426;7.714;2023-03-04T05:52:51;100520.72;;;2.84;100.00
71195;BME280;58908;51.426;7.714;2023-03-04T05:55:18;100531.97;;;2.83;100.00
71195;BME280;58908;51.426;7.714;2023-03-04T05:57:44;100526.78;;;2.83;100.00
71195;BME280;58908;51.426;7.714;2023-03-04T06:00:12;100528.47;;;2.85;100.00
71195;BME280;58908;51.426;7.714;2023-03-04T06:02:39;100528.41;;;2.90;100.00
71195;BME280;58908;51.426;7.714;2023-03-04T06:05:06;100531.06;;;2.87;100.00
71195;BME280;58908;51.426;7.714;2023-03-04T06:07:33;100535.41;;;2.88;100.00
71195;BME280;58908;51.426;7.714;2023-03-04T06:10:00;100540.59;;;2.88;100.00
71195;BME280;58908;51.426;7.714;2023-03-04T06:12:27;100539.72;;;2.87;100.00
71195;BME280;58908;51.426;7.714;2023-03-04T06:14:53;100533.69;;;2.87;100.00
71195;BME280;58908;51.426;7.714;2023-03-04T06:17:20;100545.88;;;2.85;100.00
71195;BME280;58908;51.426;7.714;2023-03-04T06:19:46;100557.97;;;2.87;100.00
71195;BME280;58908;51.426;7.714;2023-03-04T06:22:12;100553.63;;;2.88;100.00
71195;BME280;58908;51.426;7.714;2023-03-04T06:24:39;100553.63;;;2.88;100.00
71195;BME280;58908;51.426;7.714;2023-03-04T06:27:06;100551.88;;;2.88;100.00
71195;BME280;58908;51.426;7.714;2023-03-04T06:29:33;100560.56;;;2.87;100.00
71195;BME280;58908;51.426;7.714;2023-03-04T06:31:59;100558.84;;;2.89;100.00
71195;BME280;58908;51.426;7.714;2023-03-04T06:34:25;100557.09;;;2.88;100.00
71195;BME280;58908;51.426;7.714;2023-03-04T06:36:52;100562.34;;;2.87;100.00
71195;BME280;58908;51.426;7.714;2023-03-04T06:39:18;100556.25;;;2.88;100.00
71195;BME280;58908;51.426;7.714;2023-03-04T06:41:44;100563.19;;;2.89;100.00
71195;BME280;58908;51.426;7.714;2023-03-04T06:44:12;100564.00;;;2.91;100.00
71195;BME280;58908;51.426;7.714;2023-03-04T06:46:38;100558.78;;;2.92;100.00
71195;BME280;58908;51.426;7.714;2023-03-04T06:49:04;100568.31;;;2.93;100.00
71195;BME280;58908;51.426;7.714;2023-03-04T06:51:30;100570.03;;;2.94;100.00
71195;BME280;58908;51.426;7.714;2023-03-04T06:53:57;100570.00;;;2.97;100.00
71195;BME280;58908;51.426;7.714;2023-03-04T06:56:23;100569.16;;;2.97;100.00
71195;BME280;58908;51.426;7.714;2023-03-04T06:58:49;100569.97;;;2.99;100.00
71195;BME280;58908;51.426;7.714;2023-03-04T07:01:17;100570.81;;;2.99;100.00
71195;BME280;58908;51.426;7.714;2023-03-04T07:03:44;100568.22;;;3.01;100.00
71195;BME280;58908;51.426;7.714;2023-03-04T07:06:12;100567.38;;;3.00;100.00
71195;BME280;58908;51.426;7.714;2023-03-04T07:08:38;100572.53;;;3.02;100.00
71195;BME280;58908;51.426;7.714;2023-03-04T07:11:04;100576.88;;;3.03;100.00
71195;BME280;58908;51.426;7.714;2023-03-04T07:13:31;100571.66;;;3.03;100.00
71195;BME280;58908;51.426;7.714;2023-03-04T07:15:59;100570.75;;;3.04;100.00
71195;BME280;58908;51.426;7.714;2023-03-04T07:18:26;100564.66;;;3.06;100.00
71195;BME280;58908;51.426;7.714;2023-03-04T07:20:53;100571.59;;;3.09;100.00
71195;BME280;58908;51.426;7.714;2023-03-04T07:23:19;100575.84;;;3.13;100.00
71195;BME280;58908;51.426;7.714;2023-03-04T07:25:46;100581.94;;;3.12;100.00
71195;BME280;58908;51.426;7.714;2023-03-04T07:28:13;100580.16;;;3.15;100.00
71195;BME280;58908;51.426;7.714;2023-03-04T07:30:40;100580.16;;;3.17;100.00
71195;BME280;58908;51.426;7.714;2023-03-04T07:33:06;100587.94;;;3.20;100.00
71195;BME280;58908;51.426;7.714;2023-03-04T07:35:33;100581.84;;;3.19;100.00
71195;BME280;58908;51.426;7.714;2023-03-04T07:38:00;100584.44;;;3.21;100.00
71195;BME280;58908;51.426;7.714;2023-03-04T07:40:26;100585.28;;;3.21;100.00
71195;BME280;58908;51.426;7.714;2023-03-04T07:42:53;100581.84;;;3.19;100.00
71195;BME280;58908;51.426;7.714;2023-03-04T07:45:19;100586.16;;;3.22;100.00
71195;BME280;58908;51.426;7.714;2023-03-04T07:47:46;100587.00;;;3.24;100.00
71195;BME280;58908;51.426;7.714;2023-03-04T07:50:13;100586.03;;;3.29;100.00
71195;BME280;58908;51.426;7.714;2023-03-04T07:52:41;100592.06;;;3.34;100.00
71195;BME280;58908;51.426;7.714;2023-03-04T07:55:08;100598.09;;;3.36;100.00
71195;BME280;58908;51.426;7.714;2023-03-04T07:57:35;100590.16;;;3.44;100.00
71195;BME280;58908;51.426;7.714;2023-03-04T08:00:03;100581.38;;;3.49;100.00
71195;BME280;58908;51.426;7.714;2023-03-04T08:02:29;100586.47;;;3.57;100.00
71195;BME280;58908;51.426;7.714;2023-03-04T08:04:56;100581.97;;;3.66;100.00
71195;BME280;58908;51.426;7.714;2023-03-04T08:07:22;100583.31;;;3.91;100.00
71195;BME280;58908;51.426;7.714;2023-03-04T08:09:49;100577.31;;;4.75;100.00
71195;BME280;58908;51.426;7.714;2023-03-04T08:12:16;100574.31;;;4.51;100.00
71195;BME280;58908;51.426;7.714;2023-03-04T08:14:42;100576.03;;;4.52;100.00
71195;BME280;58908;51.426;7.714;2023-03-04T08:17:08;100585.47;;;4.14;100.00
71195;BME280;58908;51.426;7.714;2023-03-04T08:19:35;100583.19;;;3.97;100.00
71195;BME280;58908;51.426;7.714;2023-03-04T08:22:01;100588.16;;;4.12;100.00
71195;BME280;58908;51.426;7.714;2023-03-04T08:24:27;100584.66;;;4.10;100.00
71195;BME280;58908;51.426;7.714;2023-03-04T08:26:55;100583.03;;;4.05;100.00
71195;BME280;58908;51.426;7.714;2023-03-04T08:29:22;100580.47;;;4.03;100.00
71195;BME280;58908;51.426;7.714;2023-03-04T08:31:48;100573.66;;;4.40;100.00
71195;BME280;58908;51.426;7.714;2023-03-04T08:34:16;100568.91;;;5.37;100.00
71195;BME280;58908;51.426;7.714;2023-03-04T08:36:43;100563.34;;;5.89;100.00
71195;BME280;58908;51.426;7.714;2023-03-04T08:39:10;100562.06;;;5.33;100.00
71195;BME280;58908;51.426;7.714;2023-03-04T08:41:37;100557.44;;;5.44;100.00
71195;BME280;58908;51.426;7.714;2023-03-04T08:44:05;100557.84;;;5.63;100.00
71195;BME280;58908;51.426;7.714;2023-03-04T08:46:32;100551.47;;;5.39;100.00
71195;BME280;58908;51.426;7.714;2023-03-04T08:48:58;100551.09;;;6.21;100.00
71195;BME280;58908;51.426;7.714;2023-03-04T08:51:25;100549.59;;;6.74;100.00
71195;BME280;58908;51.426;7.714;2023-03-04T08:53:51;100555.22;;;6.60;100.00
71195;BME280;58908;51.426;7.714;2023-03-04T08:56:17;100555.84;;;6.39;100.00
71195;BME280;58908;51.426;7.714;2023-03-04T08:58:43;100555.69;;;6.13;100.00
71195;BME280;58908;51.426;7.714;2023-03-04T09:01:11;100560.22;;;5.73;100.00
71195;BME280;58908;51.426;7.714;2023-03-04T09:03:38;100567.38;;;5.29;100.00
71195;BME280;58908;51.426;7.714;2023-03-04T09:06:05;100557.72;;;5.32;100.00
71195;BME280;58908;51.426;7.714;2023-03-04T09:08:32;100558.56;;;5.33;100.00
71195;BME280;58908;51.426;7.714;2023-03-04T09:10:58;100553.31;;;5.34;100.00
71195;BME280;58908;51.426;7.714;2023-03-04T09:13:26;100561.47;;;5.57;100.00
71195;BME280;58908;51.426;7.714;2023-03-04T09:15:53;100553.88;;;5.47;100.00
71195;BME280;58908;51.426;7.714;2023-03-04T09:18:21;100551.09;;;5.53;100.00
71195;BME280;58908;51.426;7.714;2023-03-04T09:20:48;100556.28;;;5.19;100.00
71195;BME280;58908;51.426;7.714;2023-03-04T09:23:15;100553.28;;;4.98;100.00
71195;BME280;58908;51.426;7.714;2023-03-04T09:25:41;100554.00;;;5.04;100.00
71195;BME280;58908;51.426;7.714;2023-03-04T09:28:09;100552.53;;;4.91;100.00
71195;BME280;58908;51.426;7.714;2023-03-04T09:30:35;100550.63;;;5.01;100.00
71195;BME280;58908;51.426;7.714;2023-03-04T09:33:01;100553.53;;;4.86;100.00
71195;BME280;58908;51.426;7.714;2023-03-04T09:35:29;100559.09;;;4.72;100.00
71195;BME280;58908;51.426;7.714;2023-03-04T09:37:56;100554.59;;;4.77;100.00
71195;BME280;58908;51.426;7.714;2023-03-04T09:40:23;100567.72;;;4.32;100.00
71195;BME280;58908;51.426;7.714;2023-03-04T09:42:51;100569.56;;;4.27;100.00
71195;BME280;58908;51.426;7.714;2023-03-04T09:45:20;100580.22;;;4.17;100.00
71195;BME280;58908;51.426;7.714;2023-03-04T09:47:47;100569.81;;;4.14;100.00
71195;BME280;58908;51.426;7.714;2023-03-04T09:50:14;100573.00;;;4.29;100.00
71195;BME280;58908;51.426;7.714;2023-03-04T09:52:47;100567.78;;;4.31;100.00
71195;BME280;58908;51.426;7.714;2023-03-04T09:55:20;100565.81;;;4.42;100.00
71195;BME280;58908;51.426;7.714;2023-03-04T09:57:50;100555.78;;;4.63;100.00
71195;BME280;58908;51.426;7.714;2023-03-04T10:00:18;100558.91;;;4.80;100.00
71195;BME280;58908;51.426;7.714;2023-03-04T10:02:49;100561.69;;;5.12;100.00
71195;BME280;58908;51.426;7.714;2023-03-04T10:05:21;100559.69;;;5.23;100.00
71195;BME280;58908;51.426;7.714;2023-03-04T10:07:54;100556.41;;;5.13;100.00
71195;BME280;58908;51.426;7.714;2023-03-04T10:10:22;100552.78;;;5.20;100.00
71195;BME280;58908;51.426;7.714;2023-03-04T10:12:50;100554.88;;;5.05;100.00
71195;BME280;58908;51.426;7.714;2023-03-04T10:15:21;100555.44;;;4.79;100.00
71195;BME280;58908;51.426;7.714;2023-03-04T10:17:48;100553.50;;;4.47;100.00
71195;BME280;58908;51.426;7.714;2023-03-04T10:20:18;100555.22;;;4.48;100.00
71195;BME280;58908;51.426;7.714;2023-03-04T10:22:46;100555.19;;;4.51;100.00
71195;BME280;58908;51.426;7.714;2023-03-04T10:25:18;100546.47;;;4.50;100.00
71195;BME280;58908;51.426;7.714;2023-03-04T10:27:48;100558.31;;;4.67;100.00
71195;BME280;58908;51.426;7.714;2023-03-04T10:30:22;100542.19;;;4.87;100.00
71195;BME280;58908;51.426;7.714;2023-03-04T10:32:51;100544.75;;;4.90;100.00
71195;BME280;58908;51.426;7.714;2023-03-04T10:35:19;100548.91;;;4.98;100.00
71195;BME280;58908;51.426;7.714;2023-03-04T10:37:48;100547.28;;;4.94;100.00
71195;BME280;58908;51.426;7.714;2023-03-04T10:40:22;100543.63;;;5.01;100.00
71195;BME280;58908;51.426;7.714;2023-03-04T10:42:49;100547.81;;;5.08;100.00
71195;BME280;58908;51.426;7.714;2023-03-04T10:45:20;100540.81;;;5.10;100.00
71195;BME280;58908;51.426;7.714;2023-03-04T10:47:51;100550.91;;;5.25;100.00
71195;BME280;58908;51.426;7.714;2023-03-04T10:50:20;100544.03;;;5.21;100.00
71195;BME280;58908;51.426;7.714;2023-03-04T10:52:48;100540.88;;;5.07;100.00
71195;BME280;58908;51.426;7.714;2023-03-04T10:55:17;100532.22;;;5.05;100.00
71195;BME280;58908;51.426;7.714;2023-03-04T10:57:47;100539.28;;;5.72;100.00
71195;BME280;58908;51.426;7.714;2023-03-04T11:03:16;100527.72;;;5.47;100.00
71195;BME280;58908;51.426;7.714;2023-03-04T11:05:44;100530.75;;;5.30;100.00
71195;BME280;58908;51.426;7.714;2023-03-04T11:08:15;100519.72;;;5.16;100.00
71195;BME280;58908;51.426;7.714;2023-03-04T11:10:42;100520.59;;;5.17;100.00
71195;BME280;58908;51.426;7.714;2023-03-04T11:13:14;100520.56;;;5.18;100.00
71195;BME280;58908;51.426;7.714;2023-03-04T11:15:49;100522.59;;;5.06;100.00
71195;BME280;58908;51.426;7.714;2023-03-04T11:18:16;100513.66;;;5.16;100.00
71195;BME280;58908;51.426;7.714;2023-03-04T11:20:45;100520.69;;;5.14;100.00
71195;BME280;58908;51.426;7.714;2023-03-04T11:23:13;100519.13;;;5.05;100.00
71195;BME280;58908;51.426;7.714;2023-03-04T11:25:42;100518.53;;;4.93;100.00
71195;BME280;58908;51.426;7.714;2023-03-04T11:28:10;100522.16;;;4.87;100.00
71195;BME280;58908;51.426;7.714;2023-03-04T11:30:43;100521.25;;;4.88;100.00
71195;BME280;58908;51.426;7.714;2023-03-04T11:33:15;100511.88;;;4.80;100.00
71195;BME280;58908;51.426;7.714;2023-03-04T11:35:44;100506.41;;;4.90;100.00
71195;BME280;58908;51.426;7.714;2023-03-04T11:38:15;100507.09;;;4.98;100.00
71195;BME280;58908;51.426;7.714;2023-03-04T11:40:43;100506.59;;;5.19;100.00
71195;BME280;58908;51.426;7.714;2023-03-04T11:43:11;100499.13;;;5.39;100.00
71195;BME280;58908;51.426;7.714;2023-03-04T11:45:46;100494.56;;;5.47;100.00
71195;BME280;58908;51.426;7.714;2023-03-04T11:48:18;100493.31;;;5.62;100.00
71195;BME280;58908;51.426;7.714;2023-03-04T11:50:50;100493.72;;;5.80;100.00
71195;BME280;58908;51.426;7.714;2023-03-04T11:53:19;100488.97;;;5.61;100.00
71195;BME280;58908;51.426;7.714;2023-03-04T11:55:52;100492.81;;;5.48;100.00
71195;BME280;58908;51.426;7.714;2023-03-04T11:58:46;100481.03;;;5.30;100.00
71195;BME280;58908;51.426;7.714;2023-03-04T12:01:18;100472.84;;;5.44;100.00
71195;BME280;58908;51.426;7.714;2023-03-04T12:03:53;100485.50;;;5.25;100.00
71195;BME280;58908;51.426;7.714;2023-03-04T12:06:25;100470.59;;;5.30;100.00
71195;BME280;58908;51.426;7.714;2023-03-04T12:08:59;100475.06;;;5.25;100.00
71195;BME280;58908;51.426;7.714;2023-03-04T12:11:29;100485.28;;;5.34;100.00
71195;BME280;58908;51.426;7.714;2023-03-04T12:14:15;100469.78;;;5.27;100.00
71195;BME280;58908;51.426;7.714;2023-03-04T12:16:49;100475.81;;;5.30;100.00
71195;BME280;58908;51.426;7.714;2023-03-04T12:19:23;100467.97;;;5.30;100.00
71195;BME280;58908;51.426;7.714;2023-03-04T12:22:01;100461.94;;;5.27;100.00
71195;BME280;58908;51.426;7.714;2023-03-04T12:24:35;100465.91;;;5.08;100.00
71195;BME280;58908;51.426;7.714;2023-03-04T12:27:06;100461.28;;;5.19;100.00
71195;BME280;58908;51.426;7.714;2023-03-04T12:29:39;100457.88;;;5.15;100.00
71195;BME280;58908;51.426;7.714;2023-03-04T12:32:12;100451.88;;;5.12;100.00
71195;BME280;58908;51.426;7.714;2023-03-04T12:34:45;100446.09;;;5.33;100.00
71195;BME280;58908;51.426;7.714;2023-03-04T12:37:22;100444.16;;;5.41;100.00
71195;BME280;58908;51.426;7.714;2023-03-04T12:39:57;100441.00;;;5.60;100.00
71195;BME280;58908;51.426;7.714;2023-03-04T12:42:33;100437.94;;;5.77;100.00
71195;BME280;58908;51.426;7.714;2023-03-04T12:45:02;100433.28;;;5.89;100.00
71195;BME280;58908;51.426;7.714;2023-03-04T12:47:37;100434.41;;;5.81;100.00
71195;BME280;58908;51.426;7.714;2023-03-04T12:50:24;100430.44;;;5.97;100.00
71195;BME280;58908;51.426;7.714;2023-03-04T12:52:57;100422.13;;;5.83;100.00
71195;BME280;58908;51.426;7.714;2023-03-04T12:55:29;100422.13;;;5.83;100.00